sensor_id;sensor_type;location;lat;lon;timestamp;P1;durP1;ratioP1;P2;durP2;ratioP2
72127;SDS011;60000;51.030;7.024;2024-02-16T00:00:01;8.00;;;1.53;;
72127;SDS011;60000;51.030;7.024;2024-02-16T00:02:28;5.53;;;1.48;;
72127;SDS011;60000;51.030;7.024;2024-02-16T00:04:53;4.60;;;1.23;;
72127;SDS011;60000;51.030;7.024;2024-02-16T00:07:19;5.23;;;1.57;;
72127;SDS011;60000;51.030;7.024;2024-02-16T00:09:44;5.70;;;1.70;;
72127;SDS011;60000;51.030;7.024;2024-02-16T00:12:09;5.43;;;1.30;;
72127;SDS011;60000;51.030;7.024;2024-02-16T00:14:34;5.90;;;1.33;;
72127;SDS011;60000;51.030;7.024;2024-02-16T00:17:00;4.28;;;1.40;;
72127;SDS011;60000;51.030;7.024;2024-02-16T00:19:25;4.30;;;1.30;;
72127;SDS011;60000;51.030;7.024;2024-02-16T00:21:51;5.20;;;1.60;;
72127;SDS011;60000;51.030;7.024;2024-02-16T00:24:17;5.43;;;1.20;;
72127;SDS011;60000;51.030;7.024;2024-02-16T00:26:42;4.40;;;1.30;;
72127;SDS011;60000;51.030;7.024;2024-02-16T00:29:10;4.22;;;1.40;;
72127;SDS011;60000;51.030;7.024;2024-02-16T00:31:35;4.63;;;1.30;;
72127;SDS011;60000;51.030;7.024;2024-02-16T00:34:01;4.97;;;1.53;;
72127;SDS011;60000;51.030;7.024;2024-02-16T00:36:26;4.68;;;1.48;;
72127;SDS011;60000;51.030;7.024;2024-02-16T00:38:52;3.97;;;1.23;;
72127;SDS011;60000;51.030;7.024;2024-02-16T00:41:18;6.10;;;1.40;;
72127;SDS011;60000;51.030;7.024;2024-02-16T00:43:44;4.57;;;1.40;;
72127;SDS011;60000;51.030;7.024;2024-02-16T00:46:10;4.57;;;1.50;;
72127;SDS011;60000;51.030;7.024;2024-02-16T00:48:36;5.28;;;1.75;;
72127;SDS011;60000;51.030;7.024;2024-02-16T00:51:01;4.40;;;1.20;;
72127;SDS011;60000;51.030;7.024;2024-02-16T00:53:26;5.43;;;1.53;;
72127;SDS011;60000;51.030;7.024;2024-02-16T00:55:52;4.43;;;1.30;;
72127;SDS011;60000;51.030;7.024;2024-02-16T00:58:17;5.20;;;1.50;;
72127;SDS011;60000;51.030;7.024;2024-02-16T01:00:44;7.88;;;1.80;;
72127;SDS011;60000;51.030;7.024;2024-02-16T01:03:10;3.63;;;1.38;;
72127;SDS011;60000;51.030;7.024;2024-02-16T01:05:35;5.75;;;1.70;;
72127;SDS011;60000;51.030;7.024;2024-02-16T01:08:00;4.20;;;1.43;;
72127;SDS011;60000;51.030;7.024;2024-02-16T01:10:26;4.83;;;1.57;;
72127;SDS011;60000;51.030;7.024;2024-02-16T01:12:51;5.43;;;1.40;;
72127;SDS011;60000;51.030;7.024;2024-02-16T01:15:17;5.22;;;1.83;;
72127;SDS011;60000;51.030;7.024;2024-02-16T01:17:43;4.70;;;1.53;;
72127;SDS011;60000;51.030;7.024;2024-02-16T01:20:08;4.97;;;1.57;;
72127;SDS011;60000;51.030;7.024;2024-02-16T01:22:37;4.07;;;1.27;;
72127;SDS011;60000;51.030;7.024;2024-02-16T01:25:03;6.35;;;1.65;;
72127;SDS011;60000;51.030;7.024;2024-02-16T01:27:29;5.00;;;1.50;;
72127;SDS011;60000;51.030;7.024;2024-02-16T01:29:54;5.47;;;1.60;;
72127;SDS011;60000;51.030;7.024;2024-02-16T01:32:19;4.32;;;1.50;;
72127;SDS011;60000;51.030;7.024;2024-02-16T01:34:45;4.43;;;1.40;;
72127;SDS011;60000;51.030;7.024;2024-02-16T01:37:12;5.70;;;1.20;;
72127;SDS011;60000;51.030;7.024;2024-02-16T01:39:37;4.43;;;1.40;;
72127;SDS011;60000;51.030;7.024;2024-02-16T01:42:03;5.43;;;1.33;;
72127;SDS011;60000;51.030;7.024;2024-02-16T01:44:28;5.53;;;1.67;;
72127;SDS011;60000;51.030;7.024;2024-02-16T01:46:53;5.70;;;1.40;;
72127;SDS011;60000;51.030;7.024;2024-02-16T01:49:19;4.77;;;1.60;;
72127;SDS011;60000;51.030;7.024;2024-02-16T01:51:44;4.38;;;1.40;;
72127;SDS011;60000;51.030;7.024;2024-02-16T01:54:11;4.47;;;1.30;;
72127;SDS011;60000;51.030;7.024;2024-02-16T01:56:36;4.60;;;1.35;;
72127;SDS011;60000;51.030;7.024;2024-02-16T01:59:02;4.10;;;1.60;;
72127;SDS011;60000;51.030;7.024;2024-02-16T02:01:27;3.77;;;1.20;;
72127;SDS011;60000;51.030;7.024;2024-02-16T02:03:52;5.33;;;1.60;;
72127;SDS011;60000;51.030;7.024;2024-02-16T02:06:18;5.15;;;1.67;;
72127;SDS011;60000;51.030;7.024;2024-02-16T02:08:43;5.47;;;1.40;;
72127;SDS011;60000;51.030;7.024;2024-02-16T02:11:08;4.33;;;1.40;;
72127;SDS011;60000;51.030;7.024;2024-02-16T02:13:34;3.87;;;1.40;;
72127;SDS011;60000;51.030;7.024;2024-02-16T02:15:59;4.53;;;1.57;;
72127;SDS011;60000;51.030;7.024;2024-02-16T02:18:25;4.15;;;1.27;;
72127;SDS011;60000;51.030;7.024;2024-02-16T02:20:51;4.03;;;1.40;;
72127;SDS011;60000;51.030;7.024;2024-02-16T02:23:18;5.20;;;1.35;;
72127;SDS011;60000;51.030;7.024;2024-02-16T02:25:44;4.55;;;1.40;;
72127;SDS011;60000;51.030;7.024;2024-02-16T02:28:10;6.10;;;1.37;;
72127;SDS011;60000;51.030;7.024;2024-02-16T02:30:35;5.73;;;1.47;;
72127;SDS011;60000;51.030;7.024;2024-02-16T02:33:03;5.53;;;1.75;;
72127;SDS011;60000;51.030;7.024;2024-02-16T02:35:28;5.47;;;1.50;;
72127;SDS011;60000;51.030;7.024;2024-02-16T02:37:53;3.77;;;1.40;;
72127;SDS011;60000;51.030;7.024;2024-02-16T02:40:19;4.45;;;1.40;;
72127;SDS011;60000;51.030;7.024;2024-02-16T02:42:44;7.50;;;1.57;;
72127;SDS011;60000;51.030;7.024;2024-02-16T02:45:09;5.03;;;1.50;;
72127;SDS011;60000;51.030;7.024;2024-02-16T02:47:34;4.27;;;1.57;;
72127;SDS011;60000;51.030;7.024;2024-02-16T02:50:00;4.00;;;1.50;;
72127;SDS011;60000;51.030;7.024;2024-02-16T02:52:25;5.87;;;1.70;;
72127;SDS011;60000;51.030;7.024;2024-02-16T02:54:51;4.47;;;1.43;;
72127;SDS011;60000;51.030;7.024;2024-02-16T02:57:16;5.15;;;1.77;;
72127;SDS011;60000;51.030;7.024;2024-02-16T02:59:42;5.80;;;1.80;;
72127;SDS011;60000;51.030;7.024;2024-02-16T03:02:08;5.07;;;1.70;;
72127;SDS011;60000;51.030;7.024;2024-02-16T03:04:34;5.30;;;1.53;;
72127;SDS011;60000;51.030;7.024;2024-02-16T03:06:59;5.43;;;1.70;;
72127;SDS011;60000;51.030;7.024;2024-02-16T03:09:25;5.00;;;1.50;;
72127;SDS011;60000;51.030;7.024;2024-02-16T03:11:51;4.55;;;1.70;;
72127;SDS011;60000;51.030;7.024;2024-02-16T03:14:16;6.77;;;2.00;;
72127;SDS011;60000;51.030;7.024;2024-02-16T03:16:42;5.80;;;1.55;;
72127;SDS011;60000;51.030;7.024;2024-02-16T03:19:08;4.77;;;1.70;;
72127;SDS011;60000;51.030;7.024;2024-02-16T03:21:36;4.05;;;1.63;;
72127;SDS011;60000;51.030;7.024;2024-02-16T03:24:02;4.73;;;1.30;;
72127;SDS011;60000;51.030;7.024;2024-02-16T03:26:27;4.35;;;1.73;;
72127;SDS011;60000;51.030;7.024;2024-02-16T03:28:53;5.83;;;1.67;;
72127;SDS011;60000;51.030;7.024;2024-02-16T03:31:19;5.90;;;1.40;;
72127;SDS011;60000;51.030;7.024;2024-02-16T03:33:46;5.25;;;1.60;;
72127;SDS011;60000;51.030;7.024;2024-02-16T03:36:12;4.55;;;1.40;;
72127;SDS011;60000;51.030;7.024;2024-02-16T03:38:42;7.10;;;1.80;;
72127;SDS011;60000;51.030;7.024;2024-02-16T03:41:12;5.47;;;1.50;;
72127;SDS011;60000;51.030;7.024;2024-02-16T03:43:39;4.40;;;1.70;;
72127;SDS011;60000;51.030;7.024;2024-02-16T03:46:04;4.27;;;1.40;;
72127;SDS011;60000;51.030;7.024;2024-02-16T03:48:30;5.20;;;1.73;;
72127;SDS011;60000;51.030;7.024;2024-02-16T03:50:55;5.40;;;1.70;;
72127;SDS011;60000;51.030;7.024;2024-02-16T03:53:20;5.00;;;1.30;;
72127;SDS011;60000;51.030;7.024;2024-02-16T03:55:45;5.07;;;1.47;;
72127;SDS011;60000;51.030;7.024;2024-02-16T03:58:11;3.70;;;1.47;;
72127;SDS011;60000;51.030;7.024;2024-02-16T04:00:37;4.50;;;1.40;;
72127;SDS011;60000;51.030;7.024;2024-02-16T04:03:03;5.35;;;1.60;;
72127;SDS011;60000;51.030;7.024;2024-02-16T04:05:29;5.32;;;1.50;;
72127;SDS011;60000;51.030;7.024;2024-02-16T04:07:57;4.05;;;1.40;;
72127;SDS011;60000;51.030;7.024;2024-02-16T04:10:26;5.47;;;1.70;;
72127;SDS011;60000;51.030;7.024;2024-02-16T04:12:53;5.47;;;1.38;;
72127;SDS011;60000;51.030;7.024;2024-02-16T04:15:18;8.03;;;1.63;;
72127;SDS011;60000;51.030;7.024;2024-02-16T04:17:44;4.77;;;1.67;;
72127;SDS011;60000;51.030;7.024;2024-02-16T04:20:09;6.23;;;1.80;;
72127;SDS011;60000;51.030;7.024;2024-02-16T04:22:36;5.22;;;1.70;;
72127;SDS011;60000;51.030;7.024;2024-02-16T04:25:02;5.63;;;1.90;;
72127;SDS011;60000;51.030;7.024;2024-02-16T04:27:30;4.32;;;1.50;;
72127;SDS011;60000;51.030;7.024;2024-02-16T04:29:56;4.57;;;1.40;;
72127;SDS011;60000;51.030;7.024;2024-02-16T04:32:22;5.72;;;1.58;;
72127;SDS011;60000;51.030;7.024;2024-02-16T04:34:50;7.03;;;2.07;;
72127;SDS011;60000;51.030;7.024;2024-02-16T04:37:17;7.30;;;1.40;;
72127;SDS011;60000;51.030;7.024;2024-02-16T04:39:43;5.10;;;1.80;;
72127;SDS011;60000;51.030;7.024;2024-02-16T04:42:09;5.43;;;1.88;;
72127;SDS011;60000;51.030;7.024;2024-02-16T04:44:36;5.50;;;1.73;;
72127;SDS011;60000;51.030;7.024;2024-02-16T04:47:04;5.25;;;1.50;;
72127;SDS011;60000;51.030;7.024;2024-02-16T04:49:30;5.43;;;1.52;;
72127;SDS011;60000;51.030;7.024;2024-02-16T04:51:55;5.88;;;1.80;;
72127;SDS011;60000;51.030;7.024;2024-02-16T04:54:21;5.38;;;1.73;;
72127;SDS011;60000;51.030;7.024;2024-02-16T04:56:47;6.40;;;1.92;;
72127;SDS011;60000;51.030;7.024;2024-02-16T04:59:13;4.35;;;1.48;;
72127;SDS011;60000;51.030;7.024;2024-02-16T05:01:39;5.75;;;1.70;;
72127;SDS011;60000;51.030;7.024;2024-02-16T05:04:04;6.93;;;1.60;;
72127;SDS011;60000;51.030;7.024;2024-02-16T05:06:29;6.57;;;1.80;;
72127;SDS011;60000;51.030;7.024;2024-02-16T05:08:56;5.80;;;1.83;;
72127;SDS011;60000;51.030;7.024;2024-02-16T05:11:22;5.63;;;2.00;;
72127;SDS011;60000;51.030;7.024;2024-02-16T05:13:49;5.18;;;1.63;;
72127;SDS011;60000;51.030;7.024;2024-02-16T05:16:15;5.07;;;1.60;;
72127;SDS011;60000;51.030;7.024;2024-02-16T05:18:40;5.43;;;1.77;;
72127;SDS011;60000;51.030;7.024;2024-02-16T05:21:05;6.57;;;2.03;;
72127;SDS011;60000;51.030;7.024;2024-02-16T05:23:31;5.33;;;2.10;;
72127;SDS011;60000;51.030;7.024;2024-02-16T05:25:56;6.33;;;1.80;;
72127;SDS011;60000;51.030;7.024;2024-02-16T05:28:22;5.17;;;1.80;;
72127;SDS011;60000;51.030;7.024;2024-02-16T05:30:47;6.47;;;2.00;;
72127;SDS011;60000;51.030;7.024;2024-02-16T05:33:12;5.03;;;1.67;;
72127;SDS011;60000;51.030;7.024;2024-02-16T05:35:39;6.47;;;1.90;;
72127;SDS011;60000;51.030;7.024;2024-02-16T05:38:08;7.25;;;1.92;;
72127;SDS011;60000;51.030;7.024;2024-02-16T05:40:45;8.05;;;2.72;;
72127;SDS011;60000;51.030;7.024;2024-02-16T05:43:18;4.60;;;1.87;;
72127;SDS011;60000;51.030;7.024;2024-02-16T05:45:45;5.93;;;1.60;;
72127;SDS011;60000;51.030;7.024;2024-02-16T05:48:11;4.47;;;1.65;;
72127;SDS011;60000;51.030;7.024;2024-02-16T05:50:37;5.55;;;1.85;;
72127;SDS011;60000;51.030;7.024;2024-02-16T05:53:02;4.93;;;1.88;;
72127;SDS011;60000;51.030;7.024;2024-02-16T05:55:28;6.53;;;1.93;;
72127;SDS011;60000;51.030;7.024;2024-02-16T05:57:54;6.07;;;2.10;;
72127;SDS011;60000;51.030;7.024;2024-02-16T06:00:21;5.68;;;2.10;;
72127;SDS011;60000;51.030;7.024;2024-02-16T06:02:46;6.68;;;2.15;;
72127;SDS011;60000;51.030;7.024;2024-02-16T06:05:12;4.43;;;1.73;;
72127;SDS011;60000;51.030;7.024;2024-02-16T06:07:38;6.93;;;2.20;;
72127;SDS011;60000;51.030;7.024;2024-02-16T06:10:03;6.50;;;2.55;;
72127;SDS011;60000;51.030;7.024;2024-02-16T06:12:32;10.75;;;2.35;;
72127;SDS011;60000;51.030;7.024;2024-02-16T06:14:58;7.50;;;2.10;;
72127;SDS011;60000;51.030;7.024;2024-02-16T06:17:24;4.63;;;1.70;;
72127;SDS011;60000;51.030;7.024;2024-02-16T06:19:49;5.13;;;2.00;;
72127;SDS011;60000;51.030;7.024;2024-02-16T06:22:14;5.78;;;1.70;;
72127;SDS011;60000;51.030;7.024;2024-02-16T06:24:40;7.68;;;2.13;;
72127;SDS011;60000;51.030;7.024;2024-02-16T06:27:05;6.27;;;1.90;;
72127;SDS011;60000;51.030;7.024;2024-02-16T06:29:33;5.60;;;2.00;;
72127;SDS011;60000;51.030;7.024;2024-02-16T06:31:58;6.75;;;1.85;;
72127;SDS011;60000;51.030;7.024;2024-02-16T06:34:24;6.50;;;1.70;;
72127;SDS011;60000;51.030;7.024;2024-02-16T06:36:49;6.40;;;2.00;;
72127;SDS011;60000;51.030;7.024;2024-02-16T06:39:17;7.23;;;2.13;;
72127;SDS011;60000;51.030;7.024;2024-02-16T06:41:44;4.85;;;2.05;;
72127;SDS011;60000;51.030;7.024;2024-02-16T06:44:10;5.93;;;1.90;;
72127;SDS011;60000;51.030;7.024;2024-02-16T06:46:36;5.72;;;2.10;;
72127;SDS011;60000;51.030;7.024;2024-02-16T06:49:01;6.83;;;2.20;;
72127;SDS011;60000;51.030;7.024;2024-02-16T06:51:27;6.17;;;2.20;;
72127;SDS011;60000;51.030;7.024;2024-02-16T06:53:53;5.38;;;2.20;;
72127;SDS011;60000;51.030;7.024;2024-02-16T06:56:19;5.33;;;2.00;;
72127;SDS011;60000;51.030;7.024;2024-02-16T06:58:47;6.53;;;1.80;;
72127;SDS011;60000;51.030;7.024;2024-02-16T07:01:13;5.03;;;1.90;;
72127;SDS011;60000;51.030;7.024;2024-02-16T07:03:39;5.22;;;1.80;;
72127;SDS011;60000;51.030;7.024;2024-02-16T07:06:05;5.93;;;1.85;;
72127;SDS011;60000;51.030;7.024;2024-02-16T07:08:35;4.97;;;1.63;;
72127;SDS011;60000;51.030;7.024;2024-02-16T07:11:03;5.43;;;1.70;;
72127;SDS011;60000;51.030;7.024;2024-02-16T07:13:33;6.70;;;2.43;;
72127;SDS011;60000;51.030;7.024;2024-02-16T07:19:02;5.22;;;2.13;;
72127;SDS011;60000;51.030;7.024;2024-02-16T07:21:44;5.50;;;1.95;;
72127;SDS011;60000;51.030;7.024;2024-02-16T07:24:25;6.25;;;1.90;;
72127;SDS011;60000;51.030;7.024;2024-02-16T07:26:52;5.30;;;1.80;;
72127;SDS011;60000;51.030;7.024;2024-02-16T07:29:18;5.50;;;1.80;;
72127;SDS011;60000;51.030;7.024;2024-02-16T07:31:43;7.03;;;1.80;;
72127;SDS011;60000;51.030;7.024;2024-02-16T07:34:12;6.25;;;2.20;;
72127;SDS011;60000;51.030;7.024;2024-02-16T07:36:37;4.67;;;1.70;;
72127;SDS011;60000;51.030;7.024;2024-02-16T07:39:02;5.07;;;1.70;;
72127;SDS011;60000;51.030;7.024;2024-02-16T07:41:29;7.18;;;1.90;;
72127;SDS011;60000;51.030;7.024;2024-02-16T07:43:55;8.60;;;2.33;;
72127;SDS011;60000;51.030;7.024;2024-02-16T07:46:20;5.70;;;1.60;;
72127;SDS011;60000;51.030;7.024;2024-02-16T07:48:45;5.50;;;2.00;;
72127;SDS011;60000;51.030;7.024;2024-02-16T07:51:11;4.70;;;1.83;;
72127;SDS011;60000;51.030;7.024;2024-02-16T07:53:36;4.93;;;1.50;;
72127;SDS011;60000;51.030;7.024;2024-02-16T07:56:02;5.75;;;2.00;;
72127;SDS011;60000;51.030;7.024;2024-02-16T07:58:29;6.28;;;2.00;;
72127;SDS011;60000;51.030;7.024;2024-02-16T08:00:54;6.38;;;2.00;;
72127;SDS011;60000;51.030;7.024;2024-02-16T08:03:20;7.47;;;1.90;;
72127;SDS011;60000;51.030;7.024;2024-02-16T08:05:45;4.82;;;1.70;;
72127;SDS011;60000;51.030;7.024;2024-02-16T08:08:11;5.73;;;1.67;;
72127;SDS011;60000;51.030;7.024;2024-02-16T08:10:36;6.07;;;1.77;;
72127;SDS011;60000;51.030;7.024;2024-02-16T08:13:01;5.70;;;2.30;;
72127;SDS011;60000;51.030;7.024;2024-02-16T08:15:26;5.63;;;2.03;;
72127;SDS011;60000;51.030;7.024;2024-02-16T08:17:52;7.00;;;2.10;;
72127;SDS011;60000;51.030;7.024;2024-02-16T08:20:17;6.53;;;2.00;;
72127;SDS011;60000;51.030;7.024;2024-02-16T08:22:43;5.05;;;1.80;;
72127;SDS011;60000;51.030;7.024;2024-02-16T08:25:08;5.87;;;1.97;;
72127;SDS011;60000;51.030;7.024;2024-02-16T08:27:33;7.27;;;2.10;;
72127;SDS011;60000;51.030;7.024;2024-02-16T08:29:59;6.60;;;2.10;;
72127;SDS011;60000;51.030;7.024;2024-02-16T08:32:27;8.38;;;2.15;;
72127;SDS011;60000;51.030;7.024;2024-02-16T08:34:53;6.07;;;2.17;;
72127;SDS011;60000;51.030;7.024;2024-02-16T08:37:18;6.57;;;2.15;;
72127;SDS011;60000;51.030;7.024;2024-02-16T08:39:43;5.83;;;2.07;;
72127;SDS011;60000;51.030;7.024;2024-02-16T08:42:09;6.10;;;1.70;;
72127;SDS011;60000;51.030;7.024;2024-02-16T08:44:36;6.72;;;1.95;;
72127;SDS011;60000;51.030;7.024;2024-02-16T08:47:02;6.57;;;1.98;;
72127;SDS011;60000;51.030;7.024;2024-02-16T08:49:28;4.73;;;2.07;;
72127;SDS011;60000;51.030;7.024;2024-02-16T08:51:53;7.93;;;2.17;;
72127;SDS011;60000;51.030;7.024;2024-02-16T08:54:18;6.77;;;2.07;;
72127;SDS011;60000;51.030;7.024;2024-02-16T08:56:45;5.00;;;2.10;;
72127;SDS011;60000;51.030;7.024;2024-02-16T08:59:10;7.22;;;2.30;;
72127;SDS011;60000;51.030;7.024;2024-02-16T09:01:38;7.23;;;2.10;;
72127;SDS011;60000;51.030;7.024;2024-02-16T09:04:04;5.53;;;1.90;;
72127;SDS011;60000;51.030;7.024;2024-02-16T09:06:30;5.78;;;2.35;;
72127;SDS011;60000;51.030;7.024;2024-02-16T09:08:56;6.87;;;2.03;;
72127;SDS011;60000;51.030;7.024;2024-02-16T09:11:22;5.70;;;1.90;;
72127;SDS011;60000;51.030;7.024;2024-02-16T09:13:48;6.57;;;2.00;;
72127;SDS011;60000;51.030;7.024;2024-02-16T09:16:14;5.28;;;1.98;;
72127;SDS011;60000;51.030;7.024;2024-02-16T09:18:39;5.45;;;2.17;;
72127;SDS011;60000;51.030;7.024;2024-02-16T09:21:05;5.83;;;1.87;;
72127;SDS011;60000;51.030;7.024;2024-02-16T09:23:32;6.35;;;2.05;;
72127;SDS011;60000;51.030;7.024;2024-02-16T09:25:58;7.25;;;1.70;;
72127;SDS011;60000;51.030;7.024;2024-02-16T09:28:24;6.95;;;2.28;;
72127;SDS011;60000;51.030;7.024;2024-02-16T09:30:49;9.20;;;2.30;;
72127;SDS011;60000;51.030;7.024;2024-02-16T09:33:15;6.60;;;2.42;;
72127;SDS011;60000;51.030;7.024;2024-02-16T09:35:40;5.80;;;2.87;;
72127;SDS011;60000;51.030;7.024;2024-02-16T09:38:05;5.87;;;2.13;;
72127;SDS011;60000;51.030;7.024;2024-02-16T09:40:31;6.13;;;2.10;;
72127;SDS011;60000;51.030;7.024;2024-02-16T09:42:57;5.68;;;1.70;;
72127;SDS011;60000;51.030;7.024;2024-02-16T09:45:23;7.93;;;2.20;;
72127;SDS011;60000;51.030;7.024;2024-02-16T09:47:49;5.00;;;1.80;;
72127;SDS011;60000;51.030;7.024;2024-02-16T09:50:15;8.35;;;2.35;;
72127;SDS011;60000;51.030;7.024;2024-02-16T09:52:41;7.70;;;1.80;;
72127;SDS011;60000;51.030;7.024;2024-02-16T09:55:11;5.88;;;2.10;;
72127;SDS011;60000;51.030;7.024;2024-02-16T09:57:37;6.63;;;1.70;;
72127;SDS011;60000;51.030;7.024;2024-02-16T10:00:03;5.50;;;1.65;;
72127;SDS011;60000;51.030;7.024;2024-02-16T10:02:39;5.70;;;1.87;;
72127;SDS011;60000;51.030;7.024;2024-02-16T10:05:14;5.53;;;1.95;;
72127;SDS011;60000;51.030;7.024;2024-02-16T10:07:44;5.30;;;1.80;;
72127;SDS011;60000;51.030;7.024;2024-02-16T10:10:23;5.40;;;1.92;;
72127;SDS011;60000;51.030;7.024;2024-02-16T10:12:50;7.53;;;2.10;;
72127;SDS011;60000;51.030;7.024;2024-02-16T10:15:26;5.05;;;2.00;;
72127;SDS011;60000;51.030;7.024;2024-02-16T10:20:44;5.13;;;1.83;;
72127;SDS011;60000;51.030;7.024;2024-02-16T10:23:10;7.00;;;1.90;;
72127;SDS011;60000;51.030;7.024;2024-02-16T10:25:36;7.47;;;1.95;;
72127;SDS011;60000;51.030;7.024;2024-02-16T10:28:04;7.38;;;2.38;;
72127;SDS011;60000;51.030;7.024;2024-02-16T10:30:31;4.45;;;1.90;;
72127;SDS011;60000;51.030;7.024;2024-02-16T10:33:00;7.10;;;2.00;;
72127;SDS011;60000;51.030;7.024;2024-02-16T10:35:27;7.53;;;2.22;;
72127;SDS011;60000;51.030;7.024;2024-02-16T10:37:54;8.32;;;2.20;;
72127;SDS011;60000;51.030;7.024;2024-02-16T10:40:22;6.63;;;1.90;;
72127;SDS011;60000;51.030;7.024;2024-02-16T10:42:49;5.90;;;2.10;;
72127;SDS011;60000;51.030;7.024;2024-02-16T10:45:15;6.45;;;1.90;;
72127;SDS011;60000;51.030;7.024;2024-02-16T10:47:41;6.00;;;2.40;;
72127;SDS011;60000;51.030;7.024;2024-02-16T10:50:07;8.40;;;2.00;;
72127;SDS011;60000;51.030;7.024;2024-02-16T10:52:34;6.32;;;2.20;;
72127;SDS011;60000;51.030;7.024;2024-02-16T10:55:02;6.28;;;2.10;;
72127;SDS011;60000;51.030;7.024;2024-02-16T10:57:29;5.38;;;1.88;;
72127;SDS011;60000;51.030;7.024;2024-02-16T10:59:56;6.43;;;1.95;;
72127;SDS011;60000;51.030;7.024;2024-02-16T11:02:23;5.30;;;1.90;;
72127;SDS011;60000;51.030;7.024;2024-02-16T11:04:49;8.23;;;2.30;;
72127;SDS011;60000;51.030;7.024;2024-02-16T11:07:17;8.30;;;2.50;;
72127;SDS011;60000;51.030;7.024;2024-02-16T11:09:44;7.25;;;2.20;;
72127;SDS011;60000;51.030;7.024;2024-02-16T11:12:11;6.90;;;2.50;;
72127;SDS011;60000;51.030;7.024;2024-02-16T11:14:38;5.85;;;2.28;;
72127;SDS011;60000;51.030;7.024;2024-02-16T11:17:10;5.30;;;2.00;;
72127;SDS011;60000;51.030;7.024;2024-02-16T11:19:40;8.30;;;2.50;;
72127;SDS011;60000;51.030;7.024;2024-02-16T11:22:06;7.82;;;2.00;;
72127;SDS011;60000;51.030;7.024;2024-02-16T11:24:33;7.63;;;2.00;;
72127;SDS011;60000;51.030;7.024;2024-02-16T11:27:07;7.28;;;2.25;;
72127;SDS011;60000;51.030;7.024;2024-02-16T11:29:34;6.82;;;2.22;;
72127;SDS011;60000;51.030;7.024;2024-02-16T11:32:03;5.57;;;2.07;;
72127;SDS011;60000;51.030;7.024;2024-02-16T11:34:30;6.35;;;1.90;;
72127;SDS011;60000;51.030;7.024;2024-02-16T11:36:55;6.57;;;2.00;;
72127;SDS011;60000;51.030;7.024;2024-02-16T11:39:22;6.55;;;2.13;;
72127;SDS011;60000;51.030;7.024;2024-02-16T11:41:47;6.90;;;2.17;;
72127;SDS011;60000;51.030;7.024;2024-02-16T11:44:23;7.43;;;2.08;;
72127;SDS011;60000;51.030;7.024;2024-02-16T11:46:52;8.30;;;2.17;;
72127;SDS011;60000;51.030;7.024;2024-02-16T11:49:18;6.28;;;2.10;;
72127;SDS011;60000;51.030;7.024;2024-02-16T11:51:44;6.67;;;2.40;;
72127;SDS011;60000;51.030;7.024;2024-02-16T11:54:09;6.63;;;1.87;;
72127;SDS011;60000;51.030;7.024;2024-02-16T11:56:34;7.28;;;2.42;;
72127;SDS011;60000;51.030;7.024;2024-02-16T11:59:00;6.20;;;2.10;;
72127;SDS011;60000;51.030;7.024;2024-02-16T12:01:26;5.68;;;1.77;;
72127;SDS011;60000;51.030;7.024;2024-02-16T12:03:51;5.78;;;2.00;;
72127;SDS011;60000;51.030;7.024;2024-02-16T12:06:20;7.33;;;2.17;;
72127;SDS011;60000;51.030;7.024;2024-02-16T12:08:49;9.73;;;2.22;;
72127;SDS011;60000;51.030;7.024;2024-02-16T12:11:17;6.53;;;1.98;;
72127;SDS011;60000;51.030;7.024;2024-02-16T12:13:42;7.30;;;2.10;;
72127;SDS011;60000;51.030;7.024;2024-02-16T12:16:09;6.22;;;1.92;;
72127;SDS011;60000;51.030;7.024;2024-02-16T12:18:35;7.57;;;2.40;;
72127;SDS011;60000;51.030;7.024;2024-02-16T12:21:04;9.77;;;3.13;;
72127;SDS011;60000;51.030;7.024;2024-02-16T12:23:31;7.75;;;2.70;;
72127;SDS011;60000;51.030;7.024;2024-02-16T12:25:57;8.73;;;2.20;;
72127;SDS011;60000;51.030;7.024;2024-02-16T12:28:26;8.03;;;2.57;;
72127;SDS011;60000;51.030;7.024;2024-02-16T12:30:53;9.73;;;3.00;;
72127;SDS011;60000;51.030;7.024;2024-02-16T12:33:19;6.15;;;2.17;;
72127;SDS011;60000;51.030;7.024;2024-02-16T12:35:44;7.73;;;2.17;;
72127;SDS011;60000;51.030;7.024;2024-02-16T12:38:11;6.80;;;2.70;;
72127;SDS011;60000;51.030;7.024;2024-02-16T12:40:37;7.90;;;2.15;;
72127;SDS011;60000;51.030;7.024;2024-02-16T12:43:02;6.03;;;2.97;;
72127;SDS011;60000;51.030;7.024;2024-02-16T12:45:28;6.87;;;2.90;;
72127;SDS011;60000;51.030;7.024;2024-02-16T12:47:53;6.93;;;2.50;;
72127;SDS011;60000;51.030;7.024;2024-02-16T12:50:18;7.37;;;2.60;;
72127;SDS011;60000;51.030;7.024;2024-02-16T12:52:44;7.10;;;2.20;;
72127;SDS011;60000;51.030;7.024;2024-02-16T12:55:09;7.70;;;2.50;;
72127;SDS011;60000;51.030;7.024;2024-02-16T12:57:35;5.60;;;2.33;;
72127;SDS011;60000;51.030;7.024;2024-02-16T13:00:01;7.55;;;2.45;;
72127;SDS011;60000;51.030;7.024;2024-02-16T13:02:27;6.10;;;2.40;;
72127;SDS011;60000;51.030;7.024;2024-02-16T13:04:54;6.05;;;2.10;;
72127;SDS011;60000;51.030;7.024;2024-02-16T13:07:19;8.20;;;3.00;;
72127;SDS011;60000;51.030;7.024;2024-02-16T13:09:45;7.23;;;2.53;;
72127;SDS011;60000;51.030;7.024;2024-02-16T13:12:10;8.20;;;2.70;;
72127;SDS011;60000;51.030;7.024;2024-02-16T13:14:35;8.03;;;2.30;;
72127;SDS011;60000;51.030;7.024;2024-02-16T13:17:01;6.40;;;2.33;;
72127;SDS011;60000;51.030;7.024;2024-02-16T13:19:27;7.55;;;2.42;;
72127;SDS011;60000;51.030;7.024;2024-02-16T13:21:52;7.07;;;2.53;;
72127;SDS011;60000;51.030;7.024;2024-02-16T13:24:18;7.17;;;2.53;;
72127;SDS011;60000;51.030;7.024;2024-02-16T13:26:43;7.50;;;2.73;;
72127;SDS011;60000;51.030;7.024;2024-02-16T13:29:08;7.68;;;3.40;;
72127;SDS011;60000;51.030;7.024;2024-02-16T13:31:34;7.13;;;3.20;;
72127;SDS011;60000;51.030;7.024;2024-02-16T13:33:59;9.53;;;3.13;;
72127;SDS011;60000;51.030;7.024;2024-02-16T13:36:25;9.13;;;3.38;;
72127;SDS011;60000;51.030;7.024;2024-02-16T13:38:51;10.63;;;4.60;;
72127;SDS011;60000;51.030;7.024;2024-02-16T13:41:17;11.52;;;3.63;;
72127;SDS011;60000;51.030;7.024;2024-02-16T13:43:42;8.53;;;3.30;;
72127;SDS011;60000;51.030;7.024;2024-02-16T13:46:08;11.20;;;3.77;;
72127;SDS011;60000;51.030;7.024;2024-02-16T13:48:33;12.67;;;4.30;;
72127;SDS011;60000;51.030;7.024;2024-02-16T13:51:02;7.68;;;3.00;;
72127;SDS011;60000;51.030;7.024;2024-02-16T13:53:28;8.90;;;3.83;;
72127;SDS011;60000;51.030;7.024;2024-02-16T13:55:53;8.20;;;3.60;;
72127;SDS011;60000;51.030;7.024;2024-02-16T13:58:20;8.93;;;3.80;;
72127;SDS011;60000;51.030;7.024;2024-02-16T14:00:45;8.07;;;3.30;;
72127;SDS011;60000;51.030;7.024;2024-02-16T14:03:11;8.63;;;3.30;;
72127;SDS011;60000;51.030;7.024;2024-02-16T14:05:38;9.18;;;3.83;;
72127;SDS011;60000;51.030;7.024;2024-02-16T14:08:04;9.07;;;3.50;;
72127;SDS011;60000;51.030;7.024;2024-02-16T14:10:30;7.88;;;3.60;;
72127;SDS011;60000;51.030;7.024;2024-02-16T14:12:57;10.05;;;3.83;;
72127;SDS011;60000;51.030;7.024;2024-02-16T14:15:22;9.30;;;4.50;;
72127;SDS011;60000;51.030;7.024;2024-02-16T14:17:48;8.43;;;4.40;;
72127;SDS011;60000;51.030;7.024;2024-02-16T14:20:13;10.00;;;5.43;;
72127;SDS011;60000;51.030;7.024;2024-02-16T14:22:39;9.77;;;4.10;;
72127;SDS011;60000;51.030;7.024;2024-02-16T14:25:04;7.53;;;3.53;;
72127;SDS011;60000;51.030;7.024;2024-02-16T14:27:30;10.68;;;4.15;;
72127;SDS011;60000;51.030;7.024;2024-02-16T14:29:55;11.63;;;4.47;;
72127;SDS011;60000;51.030;7.024;2024-02-16T14:32:21;7.75;;;3.20;;
72127;SDS011;60000;51.030;7.024;2024-02-16T14:34:47;10.73;;;3.50;;
72127;SDS011;60000;51.030;7.024;2024-02-16T14:37:12;10.83;;;4.77;;
72127;SDS011;60000;51.030;7.024;2024-02-16T14:39:37;18.53;;;7.50;;
72127;SDS011;60000;51.030;7.024;2024-02-16T14:42:03;22.30;;;7.50;;
72127;SDS011;60000;51.030;7.024;2024-02-16T14:44:28;18.10;;;7.60;;
72127;SDS011;60000;51.030;7.024;2024-02-16T14:46:54;12.87;;;6.30;;